sensor_id;sensor_type;location;lat;lon;timestamp;temperature;humidity
74155;DHT22;62509;46.248;6.018;2023-08-07T00:00:12;14.20;62.00
74155;DHT22;62509;46.248;6.018;2023-08-07T00:05:15;14.10;63.70
74155;DHT22;62509;46.248;6.018;2023-08-07T00:10:19;14.00;63.70
74155;DHT22;62509;46.248;6.018;2023-08-07T00:15:24;13.90;65.90
74155;DHT22;62509;46.248;6.018;2023-08-07T00:20:27;13.90;64.00
74155;DHT22;62509;46.248;6.018;2023-08-07T00:25:30;13.90;63.30
74155;DHT22;62509;46.248;6.018;2023-08-07T00:30:35;14.10;62.40
74155;DHT22;62509;46.248;6.018;2023-08-07T00:35:38;14.00;61.80
74155;DHT22;62509;46.248;6.018;2023-08-07T00:40:41;14.00;62.30
74155;DHT22;62509;46.248;6.018;2023-08-07T00:45:46;13.80;62.80
74155;DHT22;62509;46.248;6.018;2023-08-07T00:50:50;13.70;63.60
74155;DHT22;62509;46.248;6.018;2023-08-07T00:55:54;13.70;63.70
74155;DHT22;62509;46.248;6.018;2023-08-07T01:00:59;13.70;64.40
74155;DHT22;62509;46.248;6.018;2023-08-07T01:06:02;13.80;64.80
74155;DHT22;62509;46.248;6.018;2023-08-07T01:11:08;13.90;62.40
74155;DHT22;62509;46.248;6.018;2023-08-07T01:16:21;13.80;61.50
74155;DHT22;62509;46.248;6.018;2023-08-07T01:21:29;13.90;61.10
74155;DHT22;62509;46.248;6.018;2023-08-07T01:26:36;13.90;62.10
74155;DHT22;62509;46.248;6.018;2023-08-07T01:31:40;13.70;64.20
74155;DHT22;62509;46.248;6.018;2023-08-07T01:36:44;13.50;65.30
74155;DHT22;62509;46.248;6.018;2023-08-07T01:41:49;13.40;65.90
74155;DHT22;62509;46.248;6.018;2023-08-07T01:46:53;13.40;66.00
74155;DHT22;62509;46.248;6.018;2023-08-07T01:51:56;13.10;69.00
74155;DHT22;62509;46.248;6.018;2023-08-07T01:57:01;13.00;69.50
74155;DHT22;62509;46.248;6.018;2023-08-07T02:02:05;12.90;70.70
74155;DHT22;62509;46.248;6.018;2023-08-07T02:07:08;12.90;70.30
74155;DHT22;62509;46.248;6.018;2023-08-07T02:12:13;13.00;68.80
74155;DHT22;62509;46.248;6.018;2023-08-07T02:17:16;12.90;68.60
74155;DHT22;62509;46.248;6.018;2023-08-07T02:22:19;12.90;68.60
74155;DHT22;62509;46.248;6.018;2023-08-07T02:27:24;12.90;69.00
74155;DHT22;62509;46.248;6.018;2023-08-07T02:32:27;12.90;69.50
74155;DHT22;62509;46.248;6.018;2023-08-07T02:37:30;12.70;70.60
74155;DHT22;62509;46.248;6.018;2023-08-07T02:42:35;12.50;71.70
74155;DHT22;62509;46.248;6.018;2023-08-07T02:47:38;12.50;71.70
74155;DHT22;62509;46.248;6.018;2023-08-07T02:52:41;12.60;69.70
74155;DHT22;62509;46.248;6.018;2023-08-07T02:57:48;12.60;69.40
74155;DHT22;62509;46.248;6.018;2023-08-07T03:02:51;12.20;71.60
74155;DHT22;62509;46.248;6.018;2023-08-07T03:07:54;12.20;71.90
74155;DHT22;62509;46.248;6.018;2023-08-07T03:12:59;12.10;72.40
74155;DHT22;62509;46.248;6.018;2023-08-07T03:18:02;12.00;72.60
74155;DHT22;62509;46.248;6.018;2023-08-07T03:23:06;11.90;73.40
74155;DHT22;62509;46.248;6.018;2023-08-07T03:28:10;11.80;74.20
74155;DHT22;62509;46.248;6.018;2023-08-07T03:33:13;11.80;74.00
74155;DHT22;62509;46.248;6.018;2023-08-07T03:38:17;11.50;75.30
74155;DHT22;62509;46.248;6.018;2023-08-07T03:43:21;11.20;77.50
74155;DHT22;62509;46.248;6.018;2023-08-07T03:48:24;11.30;76.90
74155;DHT22;62509;46.248;6.018;2023-08-07T03:53:28;11.20;77.20
74155;DHT22;62509;46.248;6.018;2023-08-07T03:58:32;11.30;77.10
74155;DHT22;62509;46.248;6.018;2023-08-07T04:03:36;11.10;77.50
74155;DHT22;62509;46.248;6.018;2023-08-07T04:08:40;11.00;78.30
74155;DHT22;62509;46.248;6.018;2023-08-07T04:13:45;11.00;78.00
74155;DHT22;62509;46.248;6.018;2023-08-07T04:18:48;10.90;77.80
74155;DHT22;62509;46.248;6.018;2023-08-07T04:23:51;10.90;77.70
74155;DHT22;62509;46.248;6.018;2023-08-07T04:28:56;10.70;79.10
74155;DHT22;62509;46.248;6.018;2023-08-07T04:33:59;10.80;78.50
74155;DHT22;62509;46.248;6.018;2023-08-07T04:39:03;10.90;77.20
74155;DHT22;62509;46.248;6.018;2023-08-07T04:44:07;10.80;77.40
74155;DHT22;62509;46.248;6.018;2023-08-07T04:49:11;10.80;76.90
74155;DHT22;62509;46.248;6.018;2023-08-07T04:54:14;10.90;76.40
74155;DHT22;62509;46.248;6.018;2023-08-07T04:59:18;11.20;74.20
74155;DHT22;62509;46.248;6.018;2023-08-07T05:04:22;11.80;71.00
74155;DHT22;62509;46.248;6.018;2023-08-07T05:09:25;11.80;70.30
74155;DHT22;62509;46.248;6.018;2023-08-07T05:14:30;12.00;69.20
74155;DHT22;62509;46.248;6.018;2023-08-07T05:19:33;12.40;66.80
74155;DHT22;62509;46.248;6.018;2023-08-07T05:24:36;12.40;67.70
74155;DHT22;62509;46.248;6.018;2023-08-07T05:29:42;12.70;66.00
74155;DHT22;62509;46.248;6.018;2023-08-07T05:34:46;13.50;63.20
74155;DHT22;62509;46.248;6.018;2023-08-07T05:39:49;13.90;61.60
74155;DHT22;62509;46.248;6.018;2023-08-07T05:44:54;14.00;60.40
74155;DHT22;62509;46.248;6.018;2023-08-07T05:49:57;14.40;59.40
74155;DHT22;62509;46.248;6.018;2023-08-07T05:55:00;14.90;56.90
74155;DHT22;62509;46.248;6.018;2023-08-07T06:00:08;15.80;54.80
74155;DHT22;62509;46.248;6.018;2023-08-07T06:05:15;17.90;47.70
74155;DHT22;62509;46.248;6.018;2023-08-07T06:10:19;18.10;46.20
74155;DHT22;62509;46.248;6.018;2023-08-07T06:15:23;20.90;40.30
74155;DHT22;62509;46.248;6.018;2023-08-07T06:20:27;19.80;39.60
74155;DHT22;62509;46.248;6.018;2023-08-07T06:25:30;17.60;47.20
74155;DHT22;62509;46.248;6.018;2023-08-07T06:30:35;17.20;49.10
74155;DHT22;62509;46.248;6.018;2023-08-07T06:35:41;17.00;50.80
74155;DHT22;62509;46.248;6.018;2023-08-07T06:40:45;16.80;51.20
74155;DHT22;62509;46.248;6.018;2023-08-07T06:45:50;16.70;51.40
74155;DHT22;62509;46.248;6.018;2023-08-07T06:50:54;16.40;52.90
74155;DHT22;62509;46.248;6.018;2023-08-07T06:55:57;16.90;51.30
74155;DHT22;62509;46.248;6.018;2023-08-07T07:01:02;17.40;48.60
74155;DHT22;62509;46.248;6.018;2023-08-07T07:06:05;17.10;49.00
74155;DHT22;62509;46.248;6.018;2023-08-07T07:11:08;17.40;48.10
74155;DHT22;62509;46.248;6.018;2023-08-07T07:16:13;17.60;47.40
74155;DHT22;62509;46.248;6.018;2023-08-07T07:21:17;17.70;48.70
74155;DHT22;62509;46.248;6.018;2023-08-07T07:26:20;18.00;48.80
74155;DHT22;62509;46.248;6.018;2023-08-07T07:31:25;18.00;48.10
74155;DHT22;62509;46.248;6.018;2023-08-07T07:36:28;18.30;45.10
74155;DHT22;62509;46.248;6.018;2023-08-07T07:41:31;18.50;44.40
74155;DHT22;62509;46.248;6.018;2023-08-07T07:46:37;18.70;42.50
74155;DHT22;62509;46.248;6.018;2023-08-07T07:51:41;18.60;42.40
74155;DHT22;62509;46.248;6.018;2023-08-07T07:56:46;18.50;40.90
74155;DHT22;62509;46.248;6.018;2023-08-07T08:01:50;18.70;37.40
74155;DHT22;62509;46.248;6.018;2023-08-07T08:06:54;19.10;33.60
74155;DHT22;62509;46.248;6.018;2023-08-07T08:11:57;18.60;34.00
74155;DHT22;62509;46.248;6.018;2023-08-07T08:17:02;18.20;34.80
74155;DHT22;62509;46.248;6.018;2023-08-07T08:22:06;18.90;34.90
74155;DHT22;62509;46.248;6.018;2023-08-07T08:27:10;19.20;35.10
74155;DHT22;62509;46.248;6.018;2023-08-07T08:32:15;18.40;32.40
74155;DHT22;62509;46.248;6.018;2023-08-07T08:37:18;18.40;36.00
74155;DHT22;62509;46.248;6.018;2023-08-07T08:42:21;18.50;36.90
74155;DHT22;62509;46.248;6.018;2023-08-07T08:47:26;18.30;37.80
74155;DHT22;62509;46.248;6.018;2023-08-07T08:52:30;18.40;37.10
74155;DHT22;62509;46.248;6.018;2023-08-07T08:57:34;18.50;36.40
74155;DHT22;62509;46.248;6.018;2023-08-07T09:02:39;18.90;35.60
74155;DHT22;62509;46.248;6.018;2023-08-07T09:07:42;18.30;35.40
74155;DHT22;62509;46.248;6.018;2023-08-07T09:12:50;18.40;34.90
74155;DHT22;62509;46.248;6.018;2023-08-07T09:17:57;18.50;34.20
74155;DHT22;62509;46.248;6.018;2023-08-07T09:23:01;19.80;30.80
74155;DHT22;62509;46.248;6.018;2023-08-07T09:28:04;20.30;29.10
74155;DHT22;62509;46.248;6.018;2023-08-07T09:33:09;20.20;28.70
74155;DHT22;62509;46.248;6.018;2023-08-07T09:38:13;19.40;31.10
74155;DHT22;62509;46.248;6.018;2023-08-07T09:43:20;19.30;30.70
74155;DHT22;62509;46.248;6.018;2023-08-07T09:48:25;18.90;31.40
74155;DHT22;62509;46.248;6.018;2023-08-07T09:53:29;18.50;32.10
74155;DHT22;62509;46.248;6.018;2023-08-07T09:58:33;18.80;33.10
74155;DHT22;62509;46.248;6.018;2023-08-07T10:03:38;19.50;30.10
74155;DHT22;62509;46.248;6.018;2023-08-07T10:08:42;20.10;28.70
74155;DHT22;62509;46.248;6.018;2023-08-07T10:13:46;20.70;27.50
74155;DHT22;62509;46.248;6.018;2023-08-07T10:18:51;20.10;27.90
74155;DHT22;62509;46.248;6.018;2023-08-07T10:23:55;20.10;27.60
74155;DHT22;62509;46.248;6.018;2023-08-07T10:28:58;19.70;29.50
74155;DHT22;62509;46.248;6.018;2023-08-07T10:34:05;19.80;28.90
74155;DHT22;62509;46.248;6.018;2023-08-07T10:39:08;19.90;28.20
74155;DHT22;62509;46.248;6.018;2023-08-07T10:44:19;19.60;28.30
74155;DHT22;62509;46.248;6.018;2023-08-07T10:49:31;20.00;27.80
74155;DHT22;62509;46.248;6.018;2023-08-07T10:54:38;20.20;28.30
74155;DHT22;62509;46.248;6.018;2023-08-07T10:59:48;20.20;28.80
74155;DHT22;62509;46.248;6.018;2023-08-07T11:04:54;20.00;28.40
74155;DHT22;62509;46.248;6.018;2023-08-07T11:09:58;19.70;28.00
74155;DHT22;62509;46.248;6.018;2023-08-07T11:15:02;19.60;28.10
74155;DHT22;62509;46.248;6.018;2023-08-07T11:20:07;20.50;26.20
74155;DHT22;62509;46.248;6.018;2023-08-07T11:25:12;20.90;26.00
74155;DHT22;62509;46.248;6.018;2023-08-07T11:30:17;20.70;26.10
74155;DHT22;62509;46.248;6.018;2023-08-07T11:35:21;20.10;26.50
74155;DHT22;62509;46.248;6.018;2023-08-07T11:40:25;20.40;26.00
74155;DHT22;62509;46.248;6.018;2023-08-07T11:45:28;20.20;26.40
74155;DHT22;62509;46.248;6.018;2023-08-07T11:50:33;20.10;26.40
74155;DHT22;62509;46.248;6.018;2023-08-07T11:55:37;19.70;27.50
74155;DHT22;62509;46.248;6.018;2023-08-07T12:00:49;19.70;28.40
74155;DHT22;62509;46.248;6.018;2023-08-07T12:05:54;19.60;27.40
74155;DHT22;62509;46.248;6.018;2023-08-07T12:11:00;19.70;28.40
74155;DHT22;62509;46.248;6.018;2023-08-07T12:16:04;19.50;29.10
74155;DHT22;62509;46.248;6.018;2023-08-07T12:21:09;19.40;29.50
74155;DHT22;62509;46.248;6.018;2023-08-07T12:26:12;19.70;28.80
74155;DHT22;62509;46.248;6.018;2023-08-07T12:31:15;20.40;26.60
74155;DHT22;62509;46.248;6.018;2023-08-07T12:36:21;20.50;26.30
74155;DHT22;62509;46.248;6.018;2023-08-07T12:41:25;21.00;26.70
74155;DHT22;62509;46.248;6.018;2023-08-07T12:46:31;21.70;25.10
74155;DHT22;62509;46.248;6.018;2023-08-07T12:51:39;20.80;26.00
74155;DHT22;62509;46.248;6.018;2023-08-07T12:56:42;20.40;26.90
74155;DHT22;62509;46.248;6.018;2023-08-07T13:01:45;20.30;27.20
74155;DHT22;62509;46.248;6.018;2023-08-07T13:06:50;20.00;27.70
74155;DHT22;62509;46.248;6.018;2023-08-07T13:11:53;20.30;28.20
74155;DHT22;62509;46.248;6.018;2023-08-07T13:16:57;20.30;27.30
74155;DHT22;62509;46.248;6.018;2023-08-07T13:22:02;21.00;26.80
74155;DHT22;62509;46.248;6.018;2023-08-07T13:27:06;21.00;26.00
74155;DHT22;62509;46.248;6.018;2023-08-07T13:32:09;20.80;26.50
74155;DHT22;62509;46.248;6.018;2023-08-07T13:37:14;21.00;26.30
74155;DHT22;62509;46.248;6.018;2023-08-07T13:42:17;20.90;26.20
74155;DHT22;62509;46.248;6.018;2023-08-07T13:47:20;20.30;27.70
74155;DHT22;62509;46.248;6.018;2023-08-07T13:52:27;19.90;27.60
74155;DHT22;62509;46.248;6.018;2023-08-07T13:57:32;19.60;27.30
74155;DHT22;62509;46.248;6.018;2023-08-07T14:02:36;19.70;28.40
74155;DHT22;62509;46.248;6.018;2023-08-07T14:07:40;20.00;28.40
74155;DHT22;62509;46.248;6.018;2023-08-07T14:12:43;20.20;26.30
74155;DHT22;62509;46.248;6.018;2023-08-07T14:17:48;20.90;26.80
74155;DHT22;62509;46.248;6.018;2023-08-07T14:22:54;21.60;25.00
74155;DHT22;62509;46.248;6.018;2023-08-07T14:28:13;21.90;22.20
74155;DHT22;62509;46.248;6.018;2023-08-07T14:33:16;21.30;22.10
74155;DHT22;62509;46.248;6.018;2023-08-07T14:38:21;20.90;23.10
74155;DHT22;62509;46.248;6.018;2023-08-07T14:43:24;20.60;23.70
74155;DHT22;62509;46.248;6.018;2023-08-07T14:48:27;20.40;24.70
74155;DHT22;62509;46.248;6.018;2023-08-07T14:53:32;20.60;24.30
74155;DHT22;62509;46.248;6.018;2023-08-07T14:58:37;21.00;25.40
74155;DHT22;62509;46.248;6.018;2023-08-07T15:03:40;20.90;25.00
74155;DHT22;62509;46.248;6.018;2023-08-07T15:08:45;21.30;24.60
74155;DHT22;62509;46.248;6.018;2023-08-07T15:13:48;21.90;22.60
74155;DHT22;62509;46.248;6.018;2023-08-07T15:18:51;21.60;23.70
74155;DHT22;62509;46.248;6.018;2023-08-07T15:23:56;21.40;24.40
74155;DHT22;62509;46.248;6.018;2023-08-07T15:28:59;21.30;23.70
74155;DHT22;62509;46.248;6.018;2023-08-07T15:34:02;21.40;24.10
74155;DHT22;62509;46.248;6.018;2023-08-07T15:39:07;21.40;23.60
74155;DHT22;62509;46.248;6.018;2023-08-07T15:44:10;21.00;23.60
74155;DHT22;62509;46.248;6.018;2023-08-07T15:49:13;20.80;24.40
74155;DHT22;62509;46.248;6.018;2023-08-07T15:54:18;20.40;24.70
74155;DHT22;62509;46.248;6.018;2023-08-07T15:59:22;20.40;24.70
74155;DHT22;62509;46.248;6.018;2023-08-07T16:04:28;20.10;25.70
74155;DHT22;62509;46.248;6.018;2023-08-07T16:09:33;19.90;26.50
74155;DHT22;62509;46.248;6.018;2023-08-07T16:14:36;19.90;26.90
74155;DHT22;62509;46.248;6.018;2023-08-07T16:19:40;20.10;27.00
74155;DHT22;62509;46.248;6.018;2023-08-07T16:24:45;20.10;26.80
74155;DHT22;62509;46.248;6.018;2023-08-07T16:29:49;20.10;27.30
74155;DHT22;62509;46.248;6.018;2023-08-07T16:34:52;20.00;26.30
74155;DHT22;62509;46.248;6.018;2023-08-07T16:39:57;19.90;27.60
74155;DHT22;62509;46.248;6.018;2023-08-07T16:45:00;19.90;26.10
74155;DHT22;62509;46.248;6.018;2023-08-07T16:50:05;19.90;27.50
74155;DHT22;62509;46.248;6.018;2023-08-07T16:55:11;19.60;29.00
74155;DHT22;62509;46.248;6.018;2023-08-07T17:00:15;19.50;30.00
74155;DHT22;62509;46.248;6.018;2023-08-07T17:05:21;19.50;30.00
74155;DHT22;62509;46.248;6.018;2023-08-07T17:10:26;19.40;30.60
74155;DHT22;62509;46.248;6.018;2023-08-07T17:15:32;19.40;30.00
74155;DHT22;62509;46.248;6.018;2023-08-07T17:20:35;19.40;29.60
74155;DHT22;62509;46.248;6.018;2023-08-07T17:25:40;19.50;28.20
74155;DHT22;62509;46.248;6.018;2023-08-07T17:30:43;19.50;29.70
74155;DHT22;62509;46.248;6.018;2023-08-07T17:35:46;19.50;30.40
74155;DHT22;62509;46.248;6.018;2023-08-07T17:40:51;19.50;30.70
74155;DHT22;62509;46.248;6.018;2023-08-07T17:45:56;19.30;31.30
74155;DHT22;62509;46.248;6.018;2023-08-07T17:51:00;19.10;32.00
74155;DHT22;62509;46.248;6.018;2023-08-07T17:56:04;19.10;31.80
74155;DHT22;62509;46.248;6.018;2023-08-07T18:01:08;19.00;32.20
74155;DHT22;62509;46.248;6.018;2023-08-07T18:06:11;18.90;32.90
74155;DHT22;62509;46.248;6.018;2023-08-07T18:11:17;18.80;33.70
74155;DHT22;62509;46.248;6.018;2023-08-07T18:16:20;18.70;34.10
74155;DHT22;62509;46.248;6.018;2023-08-07T18:21:24;18.40;35.10
74155;DHT22;62509;46.248;6.018;2023-08-07T18:26:29;18.30;36.10
74155;DHT22;62509;46.248;6.018;2023-08-07T18:31:33;18.10;36.90
74155;DHT22;62509;46.248;6.018;2023-08-07T18:36:36;18.00;37.70
74155;DHT22;62509;46.248;6.018;2023-08-07T18:41:42;17.70;38.70
74155;DHT22;62509;46.248;6.018;2023-08-07T18:46:45;17.50;39.70
74155;DHT22;62509;46.248;6.018;2023-08-07T18:51:49;17.30;40.90
74155;DHT22;62509;46.248;6.018;2023-08-07T18:56:53;17.20;42.60
74155;DHT22;62509;46.248;6.018;2023-08-07T19:01:57;16.90;43.20
74155;DHT22;62509;46.248;6.018;2023-08-07T19:07:01;16.60;44.60
74155;DHT22;62509;46.248;6.018;2023-08-07T19:12:06;16.10;46.90
74155;DHT22;62509;46.248;6.018;2023-08-07T19:17:10;16.10;45.70
74155;DHT22;62509;46.248;6.018;2023-08-07T19:22:13;16.20;46.20
74155;DHT22;62509;46.248;6.018;2023-08-07T19:27:18;16.00;47.50
74155;DHT22;62509;46.248;6.018;2023-08-07T19:32:21;15.80;48.60
74155;DHT22;62509;46.248;6.018;2023-08-07T19:37:25;15.90;47.90
74155;DHT22;62509;46.248;6.018;2023-08-07T19:42:29;15.80;48.10
74155;DHT22;62509;46.248;6.018;2023-08-07T19:47:33;15.80;48.10
74155;DHT22;62509;46.248;6.018;2023-08-07T19:52:37;15.70;49.20
74155;DHT22;62509;46.248;6.018;2023-08-07T19:57:42;15.60;49.70
74155;DHT22;62509;46.248;6.018;2023-08-07T20:02:45;15.40;52.40
74155;DHT22;62509;46.248;6.018;2023-08-07T20:07:49;15.30;51.70
74155;DHT22;62509;46.248;6.018;2023-08-07T20:12:53;15.30;50.70
74155;DHT22;62509;46.248;6.018;2023-08-07T20:17:57;15.40;51.20
74155;DHT22;62509;46.248;6.018;2023-08-07T20:23:00;15.30;51.70
74155;DHT22;62509;46.248;6.018;2023-08-07T20:28:06;15.30;52.30
74155;DHT22;62509;46.248;6.018;2023-08-07T20:33:09;15.20;53.30
74155;DHT22;62509;46.248;6.018;2023-08-07T20:38:13;15.20;53.50
74155;DHT22;62509;46.248;6.018;2023-08-07T20:43:17;15.10;53.80
74155;DHT22;62509;46.248;6.018;2023-08-07T20:48:21;15.00;53.70
74155;DHT22;62509;46.248;6.018;2023-08-07T20:53:24;14.80;54.90
74155;DHT22;62509;46.248;6.018;2023-08-07T20:58:29;14.70;56.00
74155;DHT22;62509;46.248;6.018;2023-08-07T21:03:34;14.70;55.10
74155;DHT22;62509;46.248;6.018;2023-08-07T21:08:37;14.60;56.00
74155;DHT22;62509;46.248;6.018;2023-08-07T21:13:42;14.50;57.20
74155;DHT22;62509;46.248;6.018;2023-08-07T21:18:45;14.40;58.40
74155;DHT22;62509;46.248;6.018;2023-08-07T21:23:49;14.40;58.50
74155;DHT22;62509;46.248;6.018;2023-08-07T21:28:53;14.20;59.80
74155;DHT22;62509;46.248;6.018;2023-08-07T21:33:57;14.10;59.60
74155;DHT22;62509;46.248;6.018;2023-08-07T21:39:00;13.90;60.20
74155;DHT22;62509;46.248;6.018;2023-08-07T21:44:05;13.70;61.10
74155;DHT22;62509;46.248;6.018;2023-08-07T21:49:09;13.60;61.50
74155;DHT22;62509;46.248;6.018;2023-08-07T21:54:12;13.30;61.60
74155;DHT22;62509;46.248;6.018;2023-08-07T21:59:16;13.20;63.60
74155;DHT22;62509;46.248;6.018;2023-08-07T22:04:20;13.20;63.80
74155;DHT22;62509;46.248;6.018;2023-08-07T22:09:23;13.20;64.70
74155;DHT22;62509;46.248;6.018;2023-08-07T22:14:28;13.00;65.10
74155;DHT22;62509;46.248;6.018;2023-08-07T22:19:31;13.10;64.50
74155;DHT22;62509;46.248;6.018;2023-08-07T22:24:34;13.20;64.00
74155;DHT22;62509;46.248;6.018;2023-08-07T22:29:39;13.00;64.90
74155;DHT22;62509;46.248;6.018;2023-08-07T22:34:42;13.00;64.80
74155;DHT22;62509;46.248;6.018;2023-08-07T22:39:46;13.00;65.10
74155;DHT22;62509;46.248;6.018;2023-08-07T22:44:50;12.90;65.70
74155;DHT22;62509;46.248;6.018;2023-08-07T22:49:53;12.50;67.90
74155;DHT22;62509;46.248;6.018;2023-08-07T22:54:57;12.30;69.50
74155;DHT22;62509;46.248;6.018;2023-08-07T23:00:01;12.30;69.60
74155;DHT22;62509;46.248;6.018;2023-08-07T23:05:06;12.30;69.30
74155;DHT22;62509;46.248;6.018;2023-08-07T23:10:11;12.60;67.80
74155;DHT22;62509;46.248;6.018;2023-08-07T23:15:16;12.70;67.10
74155;DHT22;62509;46.248;6.018;2023-08-07T23:20:19;12.50;68.30
74155;DHT22;62509;46.248;6.018;2023-08-07T23:25:22;12.50;67.90
74155;DHT22;62509;46.248;6.018;2023-08-07T23:30:28;12.10;69.40
74155;DHT22;62509;46.248;6.018;2023-08-07T23:35:31;11.90;70.90
74155;DHT22;62509;46.248;6.018;2023-08-07T23:40:36;12.10;69.90
74155;DHT22;62509;46.248;6.018;2023-08-07T23:45:41;12.00;70.00
74155;DHT22;62509;46.248;6.018;2023-08-07T23:50:44;11.90;70.70
74155;DHT22;62509;46.248;6.018;2023-08-07T23:55:47;11.80;70.00
